sensor_id;sensor_type;location;lat;lon;timestamp;temperature;humidity
21355;DHT22;10835;50.148;19.760;2023-02-17T00:01:32;12.40;56.50
21355;DHT22;10835;50.148;19.760;2023-02-17T00:04:02;12.40;56.10
21355;DHT22;10835;50.148;19.760;2023-02-17T00:06:30;11.90;56.80
21355;DHT22;10835;50.148;19.760;2023-02-17T00:09:00;11.90;57.00
21355;DHT22;10835;50.148;19.760;2023-02-17T00:11:28;12.00;56.90
21355;DHT22;10835;50.148;19.760;2023-02-17T00:13:56;12.00;56.90
21355;DHT22;10835;50.148;19.760;2023-02-17T00:16:27;11.50;57.60
21355;DHT22;10835;50.148;19.760;2023-02-17T00:18:56;11.30;58.30
21355;DHT22;10835;50.148;19.760;2023-02-17T00:21:28;11.50;58.40
21355;DHT22;10835;50.148;19.760;2023-02-17T00:23:57;11.50;58.00
21355;DHT22;10835;50.148;19.760;2023-02-17T00:26:27;11.50;57.90
21355;DHT22;10835;50.148;19.760;2023-02-17T00:28:57;11.60;58.00
21355;DHT22;10835;50.148;19.760;2023-02-17T00:31:25;11.70;57.90
21355;DHT22;10835;50.148;19.760;2023-02-17T00:33:58;12.10;57.50
21355;DHT22;10835;50.148;19.760;2023-02-17T00:36:30;12.50;56.40
21355;DHT22;10835;50.148;19.760;2023-02-17T00:39:01;13.00;55.10
21355;DHT22;10835;50.148;19.760;2023-02-17T00:41:31;13.00;54.80
21355;DHT22;10835;50.148;19.760;2023-02-17T00:43:59;12.90;55.00
21355;DHT22;10835;50.148;19.760;2023-02-17T00:46:27;13.30;54.70
21355;DHT22;10835;50.148;19.760;2023-02-17T00:48:56;13.30;53.80
21355;DHT22;10835;50.148;19.760;2023-02-17T00:51:24;13.30;53.90
21355;DHT22;10835;50.148;19.760;2023-02-17T00:53:53;13.20;54.00
21355;DHT22;10835;50.148;19.760;2023-02-17T00:56:21;12.80;54.60
21355;DHT22;10835;50.148;19.760;2023-02-17T00:58:50;13.10;54.80
21355;DHT22;10835;50.148;19.760;2023-02-17T01:01:19;13.80;53.50
21355;DHT22;10835;50.148;19.760;2023-02-17T01:03:47;13.80;52.90
21355;DHT22;10835;50.148;19.760;2023-02-17T01:06:20;13.40;53.10
21355;DHT22;10835;50.148;19.760;2023-02-17T01:08:49;13.40;53.50
21355;DHT22;10835;50.148;19.760;2023-02-17T01:11:23;13.40;53.40
21355;DHT22;10835;50.148;19.760;2023-02-17T01:13:53;13.40;53.50
21355;DHT22;10835;50.148;19.760;2023-02-17T01:16:25;13.80;53.10
21355;DHT22;10835;50.148;19.760;2023-02-17T01:18:53;14.30;52.10
21355;DHT22;10835;50.148;19.760;2023-02-17T01:21:24;14.20;51.80
21355;DHT22;10835;50.148;19.760;2023-02-17T01:23:56;14.50;51.90
21355;DHT22;10835;50.148;19.760;2023-02-17T01:26:27;15.50;50.30
21355;DHT22;10835;50.148;19.760;2023-02-17T01:28:57;15.50;49.90
21355;DHT22;10835;50.148;19.760;2023-02-17T01:31:27;15.40;49.50
21355;DHT22;10835;50.148;19.760;2023-02-17T01:33:58;15.50;49.80
21355;DHT22;10835;50.148;19.760;2023-02-17T01:36:27;15.60;49.00
21355;DHT22;10835;50.148;19.760;2023-02-17T01:38:55;16.20;48.20
21355;DHT22;10835;50.148;19.760;2023-02-17T01:41:25;16.10;48.10
21355;DHT22;10835;50.148;19.760;2023-02-17T01:44:08;16.30;47.40
21355;DHT22;10835;50.148;19.760;2023-02-17T01:46:38;16.10;47.90
21355;DHT22;10835;50.148;19.760;2023-02-17T01:49:14;16.50;47.40
21355;DHT22;10835;50.148;19.760;2023-02-17T01:51:50;15.70;47.60
21355;DHT22;10835;50.148;19.760;2023-02-17T01:54:24;15.00;49.00
21355;DHT22;10835;50.148;19.760;2023-02-17T01:56:55;14.70;50.00
21355;DHT22;10835;50.148;19.760;2023-02-17T01:59:27;15.00;49.90
21355;DHT22;10835;50.148;19.760;2023-02-17T02:01:58;14.40;50.60
21355;DHT22;10835;50.148;19.760;2023-02-17T02:04:30;14.10;51.70
21355;DHT22;10835;50.148;19.760;2023-02-17T02:07:03;14.00;51.50
21355;DHT22;10835;50.148;19.760;2023-02-17T02:09:37;14.30;51.30
21355;DHT22;10835;50.148;19.760;2023-02-17T02:12:17;14.00;51.50
21355;DHT22;10835;50.148;19.760;2023-02-17T02:14:47;14.20;51.70
21355;DHT22;10835;50.148;19.760;2023-02-17T02:17:24;14.80;50.80
21355;DHT22;10835;50.148;19.760;2023-02-17T02:20:21;14.80;50.20
21355;DHT22;10835;50.148;19.760;2023-02-17T02:23:05;14.30;50.70
21355;DHT22;10835;50.148;19.760;2023-02-17T02:26:03;14.00;51.80
21355;DHT22;10835;50.148;19.760;2023-02-17T02:28:49;14.20;51.60
21355;DHT22;10835;50.148;19.760;2023-02-17T02:31:40;14.10;51.50
21355;DHT22;10835;50.148;19.760;2023-02-17T02:34:15;14.40;51.20
21355;DHT22;10835;50.148;19.760;2023-02-17T02:36:51;14.30;51.10
21355;DHT22;10835;50.148;19.760;2023-02-17T02:39:27;14.30;51.10
21355;DHT22;10835;50.148;19.760;2023-02-17T02:41:59;14.00;51.60
21355;DHT22;10835;50.148;19.760;2023-02-17T02:44:29;13.80;51.90
21355;DHT22;10835;50.148;19.760;2023-02-17T02:46:57;13.60;52.30
21355;DHT22;10835;50.148;19.760;2023-02-17T02:49:29;13.50;52.90
21355;DHT22;10835;50.148;19.760;2023-02-17T02:52:04;13.80;52.60
21355;DHT22;10835;50.148;19.760;2023-02-17T02:54:43;13.40;52.70
21355;DHT22;10835;50.148;19.760;2023-02-17T02:57:31;13.60;52.70
21355;DHT22;10835;50.148;19.760;2023-02-17T03:00:11;13.30;53.10
21355;DHT22;10835;50.148;19.760;2023-02-17T03:02:47;13.40;53.10
21355;DHT22;10835;50.148;19.760;2023-02-17T03:05:27;13.50;53.10
21355;DHT22;10835;50.148;19.760;2023-02-17T03:08:02;13.30;53.00
21355;DHT22;10835;50.148;19.760;2023-02-17T03:10:31;13.20;53.50
21355;DHT22;10835;50.148;19.760;2023-02-17T03:13:01;13.20;53.90
21355;DHT22;10835;50.148;19.760;2023-02-17T03:15:31;12.90;53.60
21355;DHT22;10835;50.148;19.760;2023-02-17T03:18:01;13.40;53.50
21355;DHT22;10835;50.148;19.760;2023-02-17T03:20:34;13.50;52.90
21355;DHT22;10835;50.148;19.760;2023-02-17T03:23:06;13.70;52.70
21355;DHT22;10835;50.148;19.760;2023-02-17T03:25:35;13.60;52.30
21355;DHT22;10835;50.148;19.760;2023-02-17T03:28:03;13.50;52.80
21355;DHT22;10835;50.148;19.760;2023-02-17T03:30:32;13.60;52.40
21355;DHT22;10835;50.148;19.760;2023-02-17T03:33:00;13.90;52.10
21355;DHT22;10835;50.148;19.760;2023-02-17T03:35:28;13.50;52.30
21355;DHT22;10835;50.148;19.760;2023-02-17T03:37:58;13.70;52.40
21355;DHT22;10835;50.148;19.760;2023-02-17T03:40:26;13.60;52.40
21355;DHT22;10835;50.148;19.760;2023-02-17T03:42:55;14.00;52.00
21355;DHT22;10835;50.148;19.760;2023-02-17T03:45:23;14.10;51.20
21355;DHT22;10835;50.148;19.760;2023-02-17T03:47:51;13.70;51.60
21355;DHT22;10835;50.148;19.760;2023-02-17T03:50:23;14.10;51.40
21355;DHT22;10835;50.148;19.760;2023-02-17T03:52:51;14.00;51.30
21355;DHT22;10835;50.148;19.760;2023-02-17T03:55:21;13.90;51.20
21355;DHT22;10835;50.148;19.760;2023-02-17T03:57:49;13.90;51.60
21355;DHT22;10835;50.148;19.760;2023-02-17T04:00:18;13.90;51.70
21355;DHT22;10835;50.148;19.760;2023-02-17T04:02:49;13.60;52.10
21355;DHT22;10835;50.148;19.760;2023-02-17T04:05:18;13.60;52.00
21355;DHT22;10835;50.148;19.760;2023-02-17T04:07:46;14.20;51.40
21355;DHT22;10835;50.148;19.760;2023-02-17T04:10:14;14.50;50.50
21355;DHT22;10835;50.148;19.760;2023-02-17T04:12:44;14.80;49.80
21355;DHT22;10835;50.148;19.760;2023-02-17T04:15:12;14.60;50.10
21355;DHT22;10835;50.148;19.760;2023-02-17T04:17:40;14.80;49.90
21355;DHT22;10835;50.148;19.760;2023-02-17T04:20:09;14.60;49.60
21355;DHT22;10835;50.148;19.760;2023-02-17T04:22:38;14.30;50.30
21355;DHT22;10835;50.148;19.760;2023-02-17T04:25:06;14.70;50.00
21355;DHT22;10835;50.148;19.760;2023-02-17T04:27:35;14.80;49.90
21355;DHT22;10835;50.148;19.760;2023-02-17T04:30:07;14.90;49.40
21355;DHT22;10835;50.148;19.760;2023-02-17T04:32:38;14.80;49.30
21355;DHT22;10835;50.148;19.760;2023-02-17T04:35:07;15.10;49.20
21355;DHT22;10835;50.148;19.760;2023-02-17T04:37:35;15.50;48.20
21355;DHT22;10835;50.148;19.760;2023-02-17T04:40:04;15.00;49.50
21355;DHT22;10835;50.148;19.760;2023-02-17T04:42:36;15.10;49.20
21355;DHT22;10835;50.148;19.760;2023-02-17T04:45:09;14.80;49.40
21355;DHT22;10835;50.148;19.760;2023-02-17T04:47:37;15.60;48.80
21355;DHT22;10835;50.148;19.760;2023-02-17T04:50:07;16.20;48.00
21355;DHT22;10835;50.148;19.760;2023-02-17T04:52:36;15.90;47.30
21355;DHT22;10835;50.148;19.760;2023-02-17T04:55:06;16.10;47.60
21355;DHT22;10835;50.148;19.760;2023-02-17T04:57:34;15.80;47.80
21355;DHT22;10835;50.148;19.760;2023-02-17T05:00:03;15.90;47.70
21355;DHT22;10835;50.148;19.760;2023-02-17T05:02:33;15.40;48.20
21355;DHT22;10835;50.148;19.760;2023-02-17T05:05:01;14.90;49.40
21355;DHT22;10835;50.148;19.760;2023-02-17T05:07:29;14.80;50.10
21355;DHT22;10835;50.148;19.760;2023-02-17T05:09:57;15.10;50.00
21355;DHT22;10835;50.148;19.760;2023-02-17T05:12:26;14.90;49.60
21355;DHT22;10835;50.148;19.760;2023-02-17T05:14:54;14.90;49.90
21355;DHT22;10835;50.148;19.760;2023-02-17T05:17:25;15.60;49.70
21355;DHT22;10835;50.148;19.760;2023-02-17T05:19:54;15.30;49.00
21355;DHT22;10835;50.148;19.760;2023-02-17T05:22:23;15.60;49.00
21355;DHT22;10835;50.148;19.760;2023-02-17T05:24:51;15.90;48.60
21355;DHT22;10835;50.148;19.760;2023-02-17T05:27:20;15.80;49.10
21355;DHT22;10835;50.148;19.760;2023-02-17T05:29:48;16.20;48.30
21355;DHT22;10835;50.148;19.760;2023-02-17T05:32:17;15.90;48.60
21355;DHT22;10835;50.148;19.760;2023-02-17T05:34:45;16.30;47.80
21355;DHT22;10835;50.148;19.760;2023-02-17T05:37:15;15.90;48.50
21355;DHT22;10835;50.148;19.760;2023-02-17T05:39:43;15.70;48.70
21355;DHT22;10835;50.148;19.760;2023-02-17T05:42:11;15.60;49.10
21355;DHT22;10835;50.148;19.760;2023-02-17T05:44:40;15.50;49.80
21355;DHT22;10835;50.148;19.760;2023-02-17T05:47:08;15.60;49.50
21355;DHT22;10835;50.148;19.760;2023-02-17T05:49:36;15.90;48.90
21355;DHT22;10835;50.148;19.760;2023-02-17T05:52:04;15.90;49.00
21355;DHT22;10835;50.148;19.760;2023-02-17T05:54:34;16.00;49.10
21355;DHT22;10835;50.148;19.760;2023-02-17T05:57:02;16.10;48.60
21355;DHT22;10835;50.148;19.760;2023-02-17T05:59:30;16.30;49.10
21355;DHT22;10835;50.148;19.760;2023-02-17T06:01:59;16.20;48.60
21355;DHT22;10835;50.148;19.760;2023-02-17T06:04:29;16.70;48.30
21355;DHT22;10835;50.148;19.760;2023-02-17T06:06:57;16.30;48.20
21355;DHT22;10835;50.148;19.760;2023-02-17T06:09:25;16.20;48.80
21355;DHT22;10835;50.148;19.760;2023-02-17T06:11:58;15.80;49.60
21355;DHT22;10835;50.148;19.760;2023-02-17T06:14:26;16.10;49.40
21355;DHT22;10835;50.148;19.760;2023-02-17T06:16:54;16.50;48.60
21355;DHT22;10835;50.148;19.760;2023-02-17T06:19:23;16.40;48.30
21355;DHT22;10835;50.148;19.760;2023-02-17T06:21:51;16.50;48.40
21355;DHT22;10835;50.148;19.760;2023-02-17T06:24:22;17.50;47.40
21355;DHT22;10835;50.148;19.760;2023-02-17T06:26:50;17.60;46.80
21355;DHT22;10835;50.148;19.760;2023-02-17T06:29:19;17.40;46.20
21355;DHT22;10835;50.148;19.760;2023-02-17T06:31:47;17.70;46.90
21355;DHT22;10835;50.148;19.760;2023-02-17T06:34:16;17.40;46.60
21355;DHT22;10835;50.148;19.760;2023-02-17T06:36:44;17.40;46.90
21355;DHT22;10835;50.148;19.760;2023-02-17T06:39:14;17.50;46.50
21355;DHT22;10835;50.148;19.760;2023-02-17T06:41:43;17.80;46.40
21355;DHT22;10835;50.148;19.760;2023-02-17T06:44:11;17.90;46.00
21355;DHT22;10835;50.148;19.760;2023-02-17T06:46:41;17.80;46.40
21355;DHT22;10835;50.148;19.760;2023-02-17T06:49:14;18.00;46.10
21355;DHT22;10835;50.148;19.760;2023-02-17T06:51:43;18.00;46.20
21355;DHT22;10835;50.148;19.760;2023-02-17T06:54:13;18.10;45.60
21355;DHT22;10835;50.148;19.760;2023-02-17T06:56:42;17.40;46.30
21355;DHT22;10835;50.148;19.760;2023-02-17T06:59:10;17.30;47.40
21355;DHT22;10835;50.148;19.760;2023-02-17T07:01:38;17.90;46.70
21355;DHT22;10835;50.148;19.760;2023-02-17T07:04:08;17.50;47.10
21355;DHT22;10835;50.148;19.760;2023-02-17T07:06:36;17.20;47.40
21355;DHT22;10835;50.148;19.760;2023-02-17T07:09:04;16.80;48.20
21355;DHT22;10835;50.148;19.760;2023-02-17T07:11:33;17.40;48.20
21355;DHT22;10835;50.148;19.760;2023-02-17T07:14:03;17.50;47.40
21355;DHT22;10835;50.148;19.760;2023-02-17T07:16:33;17.80;47.20
21355;DHT22;10835;50.148;19.760;2023-02-17T07:19:02;17.60;47.20
21355;DHT22;10835;50.148;19.760;2023-02-17T07:21:31;17.60;47.50
21355;DHT22;10835;50.148;19.760;2023-02-17T07:24:00;17.40;48.10
21355;DHT22;10835;50.148;19.760;2023-02-17T07:26:28;17.70;48.00
21355;DHT22;10835;50.148;19.760;2023-02-17T07:28:56;17.10;48.40
21355;DHT22;10835;50.148;19.760;2023-02-17T07:31:24;17.30;48.50
21355;DHT22;10835;50.148;19.760;2023-02-17T07:33:53;17.40;49.00
21355;DHT22;10835;50.148;19.760;2023-02-17T07:36:21;17.40;48.60
21355;DHT22;10835;50.148;19.760;2023-02-17T07:38:50;17.70;48.50
21355;DHT22;10835;50.148;19.760;2023-02-17T07:41:51;18.40;47.50
21355;DHT22;10835;50.148;19.760;2023-02-17T07:44:19;18.00;47.80
21355;DHT22;10835;50.148;19.760;2023-02-17T07:46:49;18.10;47.70
21355;DHT22;10835;50.148;19.760;2023-02-17T07:49:17;18.20;47.20
21355;DHT22;10835;50.148;19.760;2023-02-17T07:51:46;19.20;46.80
21355;DHT22;10835;50.148;19.760;2023-02-17T07:54:15;19.50;45.30
21355;DHT22;10835;50.148;19.760;2023-02-17T07:56:44;20.30;45.10
21355;DHT22;10835;50.148;19.760;2023-02-17T07:59:13;20.70;44.00
21355;DHT22;10835;50.148;19.760;2023-02-17T08:01:42;21.20;43.60
21355;DHT22;10835;50.148;19.760;2023-02-17T08:04:10;21.50;43.10
21355;DHT22;10835;50.148;19.760;2023-02-17T08:06:38;22.00;41.00
21355;DHT22;10835;50.148;19.760;2023-02-17T08:09:08;22.10;40.50
21355;DHT22;10835;50.148;19.760;2023-02-17T08:11:55;22.40;39.60
21355;DHT22;10835;50.148;19.760;2023-02-17T08:14:41;22.60;39.00
21355;DHT22;10835;50.148;19.760;2023-02-17T08:17:10;22.80;38.70
21355;DHT22;10835;50.148;19.760;2023-02-17T08:19:38;22.90;38.70
21355;DHT22;10835;50.148;19.760;2023-02-17T08:22:15;23.00;38.90
21355;DHT22;10835;50.148;19.760;2023-02-17T08:24:44;23.00;39.00
21355;DHT22;10835;50.148;19.760;2023-02-17T08:27:14;23.10;38.80
21355;DHT22;10835;50.148;19.760;2023-02-17T08:29:43;23.30;38.80
21355;DHT22;10835;50.148;19.760;2023-02-17T08:32:12;23.40;38.80
21355;DHT22;10835;50.148;19.760;2023-02-17T08:34:41;22.70;39.50
21355;DHT22;10835;50.148;19.760;2023-02-17T08:37:10;22.10;40.10
21355;DHT22;10835;50.148;19.760;2023-02-17T08:39:38;22.00;41.30
21355;DHT22;10835;50.148;19.760;2023-02-17T08:42:06;21.70;41.50
21355;DHT22;10835;50.148;19.760;2023-02-17T08:44:36;21.60;41.70
21355;DHT22;10835;50.148;19.760;2023-02-17T08:47:05;21.40;41.70
21355;DHT22;10835;50.148;19.760;2023-02-17T08:49:34;20.80;42.00
21355;DHT22;10835;50.148;19.760;2023-02-17T08:52:03;20.50;43.10
21355;DHT22;10835;50.148;19.760;2023-02-17T08:54:31;21.00;43.40
21355;DHT22;10835;50.148;19.760;2023-02-17T08:57:02;20.70;43.00
21355;DHT22;10835;50.148;19.760;2023-02-17T08:59:30;21.50;42.50
21355;DHT22;10835;50.148;19.760;2023-02-17T09:02:02;21.70;42.40
21355;DHT22;10835;50.148;19.760;2023-02-17T09:04:30;21.20;42.20
21355;DHT22;10835;50.148;19.760;2023-02-17T09:06:58;21.50;42.50
21355;DHT22;10835;50.148;19.760;2023-02-17T09:09:30;21.30;42.20
21355;DHT22;10835;50.148;19.760;2023-02-17T09:12:00;21.80;42.20
21355;DHT22;10835;50.148;19.760;2023-02-17T09:14:28;21.70;42.70
21355;DHT22;10835;50.148;19.760;2023-02-17T09:16:58;21.90;42.50
21355;DHT22;10835;50.148;19.760;2023-02-17T09:19:28;22.40;42.00
21355;DHT22;10835;50.148;19.760;2023-02-17T09:21:56;22.30;42.00
21355;DHT22;10835;50.148;19.760;2023-02-17T09:24:24;22.60;41.50
21355;DHT22;10835;50.148;19.760;2023-02-17T09:26:54;22.60;41.50
21355;DHT22;10835;50.148;19.760;2023-02-17T09:29:23;22.40;41.90
21355;DHT22;10835;50.148;19.760;2023-02-17T09:31:53;22.10;42.80
21355;DHT22;10835;50.148;19.760;2023-02-17T09:34:21;21.50;43.20
21355;DHT22;10835;50.148;19.760;2023-02-17T09:36:51;20.40;45.00
21355;DHT22;10835;50.148;19.760;2023-02-17T09:39:19;19.70;46.60
21355;DHT22;10835;50.148;19.760;2023-02-17T09:41:49;19.20;48.10
21355;DHT22;10835;50.148;19.760;2023-02-17T09:44:23;19.10;49.00
21355;DHT22;10835;50.148;19.760;2023-02-17T09:47:00;18.60;50.00
21355;DHT22;10835;50.148;19.760;2023-02-17T09:49:37;18.40;50.40
21355;DHT22;10835;50.148;19.760;2023-02-17T09:52:11;18.10;51.30
21355;DHT22;10835;50.148;19.760;2023-02-17T09:54:45;17.90;52.50
21355;DHT22;10835;50.148;19.760;2023-02-17T09:57:20;18.20;51.90
21355;DHT22;10835;50.148;19.760;2023-02-17T09:59:56;18.30;51.60
21355;DHT22;10835;50.148;19.760;2023-02-17T10:02:32;18.30;51.00
21355;DHT22;10835;50.148;19.760;2023-02-17T10:05:08;18.10;51.80
21355;DHT22;10835;50.148;19.760;2023-02-17T10:07:44;18.00;52.00
21355;DHT22;10835;50.148;19.760;2023-02-17T10:10:17;17.80;52.90
21355;DHT22;10835;50.148;19.760;2023-02-17T10:12:50;18.00;52.60
21355;DHT22;10835;50.148;19.760;2023-02-17T10:15:23;18.20;52.50
21355;DHT22;10835;50.148;19.760;2023-02-17T10:17:56;18.30;52.10
21355;DHT22;10835;50.148;19.760;2023-02-17T10:20:33;18.30;52.20
21355;DHT22;10835;50.148;19.760;2023-02-17T10:23:08;17.90;52.80
21355;DHT22;10835;50.148;19.760;2023-02-17T10:25:48;18.30;52.90
21355;DHT22;10835;50.148;19.760;2023-02-17T10:28:21;18.70;52.20
21355;DHT22;10835;50.148;19.760;2023-02-17T10:31:00;18.60;52.20
21355;DHT22;10835;50.148;19.760;2023-02-17T10:33:34;18.90;52.30
21355;DHT22;10835;50.148;19.760;2023-02-17T10:36:13;19.20;51.60
21355;DHT22;10835;50.148;19.760;2023-02-17T10:38:50;19.30;51.00
21355;DHT22;10835;50.148;19.760;2023-02-17T10:41:22;19.10;51.20
21355;DHT22;10835;50.148;19.760;2023-02-17T10:43:52;19.10;51.00
21355;DHT22;10835;50.148;19.760;2023-02-17T10:46:27;18.60;51.30
21355;DHT22;10835;50.148;19.760;2023-02-17T10:48:57;18.80;51.70
21355;DHT22;10835;50.148;19.760;2023-02-17T10:51:27;18.50;51.80
21355;DHT22;10835;50.148;19.760;2023-02-17T10:54:01;17.70;53.30
21355;DHT22;10835;50.148;19.760;2023-02-17T10:56:34;17.10;55.00
21355;DHT22;10835;50.148;19.760;2023-02-17T10:59:06;16.30;56.30
21355;DHT22;10835;50.148;19.760;2023-02-17T11:01:41;16.00;57.90
21355;DHT22;10835;50.148;19.760;2023-02-17T11:04:11;16.20;58.40
21355;DHT22;10835;50.148;19.760;2023-02-17T11:06:42;16.20;58.10
21355;DHT22;10835;50.148;19.760;2023-02-17T11:09:23;16.30;58.10
21355;DHT22;10835;50.148;19.760;2023-02-17T11:11:58;16.70;57.50
21355;DHT22;10835;50.148;19.760;2023-02-17T11:14:29;16.70;57.60
21355;DHT22;10835;50.148;19.760;2023-02-17T11:16:59;16.90;57.20
21355;DHT22;10835;50.148;19.760;2023-02-17T11:19:30;17.00;57.20
21355;DHT22;10835;50.148;19.760;2023-02-17T11:22:03;16.90;56.90
21355;DHT22;10835;50.148;19.760;2023-02-17T11:24:34;16.90;56.60
21355;DHT22;10835;50.148;19.760;2023-02-17T11:27:07;16.90;56.80
21355;DHT22;10835;50.148;19.760;2023-02-17T11:29:36;16.80;56.80
21355;DHT22;10835;50.148;19.760;2023-02-17T11:32:06;16.50;57.50
21355;DHT22;10835;50.148;19.760;2023-02-17T11:34:37;16.30;58.10
21355;DHT22;10835;50.148;19.760;2023-02-17T11:37:19;16.40;57.80
21355;DHT22;10835;50.148;19.760;2023-02-17T11:39:51;16.30;57.70
21355;DHT22;10835;50.148;19.760;2023-02-17T11:42:21;16.10;58.00
21355;DHT22;10835;50.148;19.760;2023-02-17T11:45:00;16.40;57.50
21355;DHT22;10835;50.148;19.760;2023-02-17T11:47:43;16.60;57.00
21355;DHT22;10835;50.148;19.760;2023-02-17T11:50:22;16.70;56.90
21355;DHT22;10835;50.148;19.760;2023-02-17T11:53:19;16.80;56.60
21355;DHT22;10835;50.148;19.760;2023-02-17T11:55:57;16.90;56.20
21355;DHT22;10835;50.148;19.760;2023-02-17T11:58:39;16.70;56.50
21355;DHT22;10835;50.148;19.760;2023-02-17T12:01:21;16.80;56.70
21355;DHT22;10835;50.148;19.760;2023-02-17T12:07:13;16.50;56.90
21355;DHT22;10835;50.148;19.760;2023-02-17T12:09:49;16.60;57.40
21355;DHT22;10835;50.148;19.760;2023-02-17T12:12:25;16.50;57.40
21355;DHT22;10835;50.148;19.760;2023-02-17T12:15:20;16.50;57.30
21355;DHT22;10835;50.148;19.760;2023-02-17T12:17:59;16.50;57.30
21355;DHT22;10835;50.148;19.760;2023-02-17T12:20:38;16.60;57.40
21355;DHT22;10835;50.148;19.760;2023-02-17T12:23:21;16.20;57.60
21355;DHT22;10835;50.148;19.760;2023-02-17T12:25:54;16.30;57.90
21355;DHT22;10835;50.148;19.760;2023-02-17T12:28:40;16.10;57.70
21355;DHT22;10835;50.148;19.760;2023-02-17T12:31:21;15.40;59.30
21355;DHT22;10835;50.148;19.760;2023-02-17T12:33:58;15.20;60.10
21355;DHT22;10835;50.148;19.760;2023-02-17T12:36:30;15.50;60.00
21355;DHT22;10835;50.148;19.760;2023-02-17T12:39:05;15.60;59.80
21355;DHT22;10835;50.148;19.760;2023-02-17T12:41:41;15.80;59.10
21355;DHT22;10835;50.148;19.760;2023-02-17T12:44:14;16.20;58.60
21355;DHT22;10835;50.148;19.760;2023-02-17T12:46:50;16.10;58.20
21355;DHT22;10835;50.148;19.760;2023-02-17T12:49:24;15.90;58.70
21355;DHT22;10835;50.148;19.760;2023-02-17T12:51:57;16.00;59.20
21355;DHT22;10835;50.148;19.760;2023-02-17T12:54:31;16.00;58.80
21355;DHT22;10835;50.148;19.760;2023-02-17T12:57:06;16.00;58.50
21355;DHT22;10835;50.148;19.760;2023-02-17T12:59:41;15.70;58.80
21355;DHT22;10835;50.148;19.760;2023-02-17T13:02:13;15.90;59.00
21355;DHT22;10835;50.148;19.760;2023-02-17T13:04:43;16.10;58.70
21355;DHT22;10835;50.148;19.760;2023-02-17T13:07:38;16.30;57.70
21355;DHT22;10835;50.148;19.760;2023-02-17T13:10:18;16.10;58.40
21355;DHT22;10835;50.148;19.760;2023-02-17T13:12:59;16.00;58.70
21355;DHT22;10835;50.148;19.760;2023-02-17T13:15:36;16.30;58.10
21355;DHT22;10835;50.148;19.760;2023-02-17T13:18:06;16.60;57.80
21355;DHT22;10835;50.148;19.760;2023-02-17T13:20:51;16.80;56.60
21355;DHT22;10835;50.148;19.760;2023-02-17T13:23:36;16.70;56.90
21355;DHT22;10835;50.148;19.760;2023-02-17T13:26:34;16.40;57.10
21355;DHT22;10835;50.148;19.760;2023-02-17T13:29:17;16.10;58.30
21355;DHT22;10835;50.148;19.760;2023-02-17T13:31:50;16.00;58.70
21355;DHT22;10835;50.148;19.760;2023-02-17T13:34:30;16.30;58.30
21355;DHT22;10835;50.148;19.760;2023-02-17T13:37:00;16.50;57.80
21355;DHT22;10835;50.148;19.760;2023-02-17T13:39:37;16.60;57.40
21355;DHT22;10835;50.148;19.760;2023-02-17T13:42:31;16.40;58.10
21355;DHT22;10835;50.148;19.760;2023-02-17T13:45:13;16.60;57.80
21355;DHT22;10835;50.148;19.760;2023-02-17T13:47:48;16.70;57.20
21355;DHT22;10835;50.148;19.760;2023-02-17T13:50:27;16.50;57.70
21355;DHT22;10835;50.148;19.760;2023-02-17T13:52:56;16.60;57.40
21355;DHT22;10835;50.148;19.760;2023-02-17T13:55:24;16.50;57.50
21355;DHT22;10835;50.148;19.760;2023-02-17T13:57:54;16.70;57.70
21355;DHT22;10835;50.148;19.760;2023-02-17T14:00:25;16.50;57.60
21355;DHT22;10835;50.148;19.760;2023-02-17T14:03:04;16.70;57.70
21355;DHT22;10835;50.148;19.760;2023-02-17T14:05:42;16.60;57.70
21355;DHT22;10835;50.148;19.760;2023-02-17T14:08:17;17.30;57.00
21355;DHT22;10835;50.148;19.760;2023-02-17T14:10:46;17.00;56.40
21355;DHT22;10835;50.148;19.760;2023-02-17T14:13:14;16.60;57.40
21355;DHT22;10835;50.148;19.760;2023-02-17T14:15:53;16.40;57.90
21355;DHT22;10835;50.148;19.760;2023-02-17T14:18:41;16.70;57.50
21355;DHT22;10835;50.148;19.760;2023-02-17T14:21:11;16.50;58.00
21355;DHT22;10835;50.148;19.760;2023-02-17T14:23:44;16.50;57.90
21355;DHT22;10835;50.148;19.760;2023-02-17T14:26:28;16.20;58.20
21355;DHT22;10835;50.148;19.760;2023-02-17T14:28:58;16.50;57.90
21355;DHT22;10835;50.148;19.760;2023-02-17T14:31:27;16.50;58.00
21355;DHT22;10835;50.148;19.760;2023-02-17T14:33:59;16.70;57.40
21355;DHT22;10835;50.148;19.760;2023-02-17T14:36:34;16.60;57.60
21355;DHT22;10835;50.148;19.760;2023-02-17T14:39:06;16.50;57.90
21355;DHT22;10835;50.148;19.760;2023-02-17T14:41:34;16.30;58.10
21355;DHT22;10835;50.148;19.760;2023-02-17T14:44:07;16.50;58.10
21355;DHT22;10835;50.148;19.760;2023-02-17T14:46:36;16.50;58.10
21355;DHT22;10835;50.148;19.760;2023-02-17T14:49:05;16.80;57.50
21355;DHT22;10835;50.148;19.760;2023-02-17T14:51:39;16.90;57.30
21355;DHT22;10835;50.148;19.760;2023-02-17T14:54:12;17.00;56.80
21355;DHT22;10835;50.148;19.760;2023-02-17T14:56:45;16.80;57.30
21355;DHT22;10835;50.148;19.760;2023-02-17T14:59:15;16.80;57.50
21355;DHT22;10835;50.148;19.760;2023-02-17T15:01:43;16.50;58.20
21355;DHT22;10835;50.148;19.760;2023-02-17T15:04:13;16.50;58.50
21355;DHT22;10835;50.148;19.760;2023-02-17T15:06:42;16.30;59.00
21355;DHT22;10835;50.148;19.760;2023-02-17T15:09:12;16.30;59.20
21355;DHT22;10835;50.148;19.760;2023-02-17T15:11:42;16.00;60.40
21355;DHT22;10835;50.148;19.760;2023-02-17T15:14:12;15.70;61.00
21355;DHT22;10835;50.148;19.760;2023-02-17T15:16:42;15.50;62.50
21355;DHT22;10835;50.148;19.760;2023-02-17T15:19:11;15.20;63.80
21355;DHT22;10835;50.148;19.760;2023-02-17T15:21:43;15.60;63.30
21355;DHT22;10835;50.148;19.760;2023-02-17T15:24:15;15.90;62.90
21355;DHT22;10835;50.148;19.760;2023-02-17T15:26:46;15.50;63.40
21355;DHT22;10835;50.148;19.760;2023-02-17T15:29:17;15.60;63.90
21355;DHT22;10835;50.148;19.760;2023-02-17T15:31:50;15.50;63.70
21355;DHT22;10835;50.148;19.760;2023-02-17T15:34:25;15.80;64.30
21355;DHT22;10835;50.148;19.760;2023-02-17T15:36:59;16.20;62.50
21355;DHT22;10835;50.148;19.760;2023-02-17T15:39:28;16.40;61.90
21355;DHT22;10835;50.148;19.760;2023-02-17T15:41:59;16.60;61.00
21355;DHT22;10835;50.148;19.760;2023-02-17T15:44:39;16.50;61.50
21355;DHT22;10835;50.148;19.760;2023-02-17T15:47:13;16.50;60.90
21355;DHT22;10835;50.148;19.760;2023-02-17T15:49:42;16.10;62.30